sensor_id;sensor_type;location;lat;lon;timestamp;temperature;humidity
20416;DHT22;10367;52.202;5.996;2024-03-06T00:01:18;6.80;99.90
20416;DHT22;10367;52.202;5.996;2024-03-06T00:03:47;6.80;99.90
20416;DHT22;10367;52.202;5.996;2024-03-06T00:06:16;6.80;99.90
20416;DHT22;10367;52.202;5.996;2024-03-06T00:08:44;6.80;99.90
20416;DHT22;10367;52.202;5.996;2024-03-06T00:11:13;6.80;99.90
20416;DHT22;10367;52.202;5.996;2024-03-06T00:13:43;6.90;99.90
20416;DHT22;10367;52.202;5.996;2024-03-06T00:16:12;6.80;99.90
20416;DHT22;10367;52.202;5.996;2024-03-06T00:18:47;6.80;99.90
20416;DHT22;10367;52.202;5.996;2024-03-06T00:21:16;6.80;99.90
20416;DHT22;10367;52.202;5.996;2024-03-06T00:23:45;6.80;99.90
20416;DHT22;10367;52.202;5.996;2024-03-06T00:26:14;6.80;99.90
20416;DHT22;10367;52.202;5.996;2024-03-06T00:28:43;6.90;99.90
20416;DHT22;10367;52.202;5.996;2024-03-06T00:31:12;6.80;99.90
20416;DHT22;10367;52.202;5.996;2024-03-06T00:33:41;6.80;99.90
20416;DHT22;10367;52.202;5.996;2024-03-06T00:36:11;6.90;99.90
20416;DHT22;10367;52.202;5.996;2024-03-06T00:38:40;6.80;99.90
20416;DHT22;10367;52.202;5.996;2024-03-06T00:41:09;6.80;99.90
20416;DHT22;10367;52.202;5.996;2024-03-06T00:43:37;6.80;99.90
20416;DHT22;10367;52.202;5.996;2024-03-06T00:46:07;6.80;99.90
20416;DHT22;10367;52.202;5.996;2024-03-06T00:48:36;6.80;99.90
20416;DHT22;10367;52.202;5.996;2024-03-06T00:51:08;6.80;99.90
20416;DHT22;10367;52.202;5.996;2024-03-06T00:53:38;6.80;99.90
20416;DHT22;10367;52.202;5.996;2024-03-06T00:56:07;6.80;99.90
20416;DHT22;10367;52.202;5.996;2024-03-06T00:58:37;6.80;99.90
20416;DHT22;10367;52.202;5.996;2024-03-06T01:01:06;6.80;99.90
20416;DHT22;10367;52.202;5.996;2024-03-06T01:03:34;6.80;99.90
20416;DHT22;10367;52.202;5.996;2024-03-06T01:06:03;6.80;99.90
20416;DHT22;10367;52.202;5.996;2024-03-06T01:08:32;6.80;99.90
20416;DHT22;10367;52.202;5.996;2024-03-06T01:11:02;6.80;99.90
20416;DHT22;10367;52.202;5.996;2024-03-06T01:13:32;6.80;99.90
20416;DHT22;10367;52.202;5.996;2024-03-06T01:16:00;6.80;99.90
20416;DHT22;10367;52.202;5.996;2024-03-06T01:18:29;6.80;99.90
20416;DHT22;10367;52.202;5.996;2024-03-06T01:20:58;6.80;99.90
20416;DHT22;10367;52.202;5.996;2024-03-06T01:23:27;6.80;99.90
20416;DHT22;10367;52.202;5.996;2024-03-06T01:25:56;6.70;99.90
20416;DHT22;10367;52.202;5.996;2024-03-06T01:28:26;6.80;99.90
20416;DHT22;10367;52.202;5.996;2024-03-06T01:30:56;6.80;99.90
20416;DHT22;10367;52.202;5.996;2024-03-06T01:33:26;6.70;99.90
20416;DHT22;10367;52.202;5.996;2024-03-06T01:35:55;6.70;99.90
20416;DHT22;10367;52.202;5.996;2024-03-06T01:38:23;6.70;99.90
20416;DHT22;10367;52.202;5.996;2024-03-06T01:40:52;6.80;99.90
20416;DHT22;10367;52.202;5.996;2024-03-06T01:43:22;6.80;99.90
20416;DHT22;10367;52.202;5.996;2024-03-06T01:45:53;6.80;99.90
20416;DHT22;10367;52.202;5.996;2024-03-06T01:48:23;6.80;99.90
20416;DHT22;10367;52.202;5.996;2024-03-06T01:50:56;6.70;99.90
20416;DHT22;10367;52.202;5.996;2024-03-06T01:53:27;6.70;99.90
20416;DHT22;10367;52.202;5.996;2024-03-06T01:55:58;6.70;99.90
20416;DHT22;10367;52.202;5.996;2024-03-06T01:58:28;6.70;99.90
20416;DHT22;10367;52.202;5.996;2024-03-06T02:00:59;6.80;99.90
20416;DHT22;10367;52.202;5.996;2024-03-06T02:03:29;6.80;99.90
20416;DHT22;10367;52.202;5.996;2024-03-06T02:06:00;6.80;99.90
20416;DHT22;10367;52.202;5.996;2024-03-06T02:08:30;6.80;99.90
20416;DHT22;10367;52.202;5.996;2024-03-06T02:10:59;6.80;99.90
20416;DHT22;10367;52.202;5.996;2024-03-06T02:13:30;6.70;99.90
20416;DHT22;10367;52.202;5.996;2024-03-06T02:16:00;6.60;99.90
20416;DHT22;10367;52.202;5.996;2024-03-06T02:18:29;6.60;99.90
20416;DHT22;10367;52.202;5.996;2024-03-06T02:20:59;6.70;99.90
20416;DHT22;10367;52.202;5.996;2024-03-06T02:23:28;6.60;99.90
20416;DHT22;10367;52.202;5.996;2024-03-06T02:25:57;6.60;99.90
20416;DHT22;10367;52.202;5.996;2024-03-06T02:28:25;6.60;99.90
20416;DHT22;10367;52.202;5.996;2024-03-06T02:30:54;6.60;99.90
20416;DHT22;10367;52.202;5.996;2024-03-06T02:33:24;6.60;99.90
20416;DHT22;10367;52.202;5.996;2024-03-06T02:35:52;6.70;99.90
20416;DHT22;10367;52.202;5.996;2024-03-06T02:38:23;6.70;99.90
20416;DHT22;10367;52.202;5.996;2024-03-06T02:40:52;6.60;99.90
20416;DHT22;10367;52.202;5.996;2024-03-06T02:43:21;6.50;99.90
20416;DHT22;10367;52.202;5.996;2024-03-06T02:45:50;6.50;99.90
20416;DHT22;10367;52.202;5.996;2024-03-06T02:48:19;6.50;99.90
20416;DHT22;10367;52.202;5.996;2024-03-06T02:50:48;6.50;99.90
20416;DHT22;10367;52.202;5.996;2024-03-06T02:53:17;6.60;99.90
20416;DHT22;10367;52.202;5.996;2024-03-06T02:55:47;6.50;99.90
20416;DHT22;10367;52.202;5.996;2024-03-06T02:58:16;6.40;99.90
20416;DHT22;10367;52.202;5.996;2024-03-06T03:00:45;6.40;99.90
20416;DHT22;10367;52.202;5.996;2024-03-06T03:03:15;6.30;99.90
20416;DHT22;10367;52.202;5.996;2024-03-06T03:05:44;6.30;99.90
20416;DHT22;10367;52.202;5.996;2024-03-06T03:08:12;6.20;99.90
20416;DHT22;10367;52.202;5.996;2024-03-06T03:10:41;6.20;99.90
20416;DHT22;10367;52.202;5.996;2024-03-06T03:13:13;6.20;99.90
20416;DHT22;10367;52.202;5.996;2024-03-06T03:15:42;6.20;99.90
20416;DHT22;10367;52.202;5.996;2024-03-06T03:18:11;6.10;99.90
20416;DHT22;10367;52.202;5.996;2024-03-06T03:20:40;6.10;99.90
20416;DHT22;10367;52.202;5.996;2024-03-06T03:23:09;6.10;99.90
20416;DHT22;10367;52.202;5.996;2024-03-06T03:25:40;6.00;99.90
20416;DHT22;10367;52.202;5.996;2024-03-06T03:28:08;5.90;99.90
20416;DHT22;10367;52.202;5.996;2024-03-06T03:30:39;5.80;99.90
20416;DHT22;10367;52.202;5.996;2024-03-06T03:33:08;5.80;99.90
20416;DHT22;10367;52.202;5.996;2024-03-06T03:35:37;5.70;99.90
20416;DHT22;10367;52.202;5.996;2024-03-06T03:38:05;5.70;99.90
20416;DHT22;10367;52.202;5.996;2024-03-06T03:40:35;5.60;99.90
20416;DHT22;10367;52.202;5.996;2024-03-06T03:43:04;5.50;99.90
20416;DHT22;10367;52.202;5.996;2024-03-06T03:45:34;5.40;99.90
20416;DHT22;10367;52.202;5.996;2024-03-06T03:48:05;5.30;99.90
20416;DHT22;10367;52.202;5.996;2024-03-06T03:50:34;5.30;99.90
20416;DHT22;10367;52.202;5.996;2024-03-06T03:53:03;5.20;99.90
20416;DHT22;10367;52.202;5.996;2024-03-06T03:55:32;5.20;99.90
20416;DHT22;10367;52.202;5.996;2024-03-06T03:58:01;5.10;99.90
20416;DHT22;10367;52.202;5.996;2024-03-06T04:00:29;5.00;99.90
20416;DHT22;10367;52.202;5.996;2024-03-06T04:02:58;4.90;99.90
20416;DHT22;10367;52.202;5.996;2024-03-06T04:05:28;4.80;99.90
20416;DHT22;10367;52.202;5.996;2024-03-06T04:07:58;4.80;99.90
20416;DHT22;10367;52.202;5.996;2024-03-06T04:10:27;4.80;99.90
20416;DHT22;10367;52.202;5.996;2024-03-06T04:12:56;4.80;99.90
20416;DHT22;10367;52.202;5.996;2024-03-06T04:15:27;4.80;99.90
20416;DHT22;10367;52.202;5.996;2024-03-06T04:17:56;4.70;99.90
20416;DHT22;10367;52.202;5.996;2024-03-06T04:20:25;4.70;99.90
20416;DHT22;10367;52.202;5.996;2024-03-06T04:22:55;4.60;99.90
20416;DHT22;10367;52.202;5.996;2024-03-06T04:25:24;4.70;99.90
20416;DHT22;10367;52.202;5.996;2024-03-06T04:27:53;4.80;99.90
20416;DHT22;10367;52.202;5.996;2024-03-06T04:30:21;4.80;99.90
20416;DHT22;10367;52.202;5.996;2024-03-06T04:32:50;4.80;99.90
20416;DHT22;10367;52.202;5.996;2024-03-06T04:35:19;4.80;99.90
20416;DHT22;10367;52.202;5.996;2024-03-06T04:37:48;4.80;99.90
20416;DHT22;10367;52.202;5.996;2024-03-06T04:40:18;4.80;99.90
20416;DHT22;10367;52.202;5.996;2024-03-06T04:42:49;4.80;99.90
20416;DHT22;10367;52.202;5.996;2024-03-06T04:45:18;4.80;99.90
20416;DHT22;10367;52.202;5.996;2024-03-06T04:47:47;4.80;99.90
20416;DHT22;10367;52.202;5.996;2024-03-06T04:50:16;4.80;99.90
20416;DHT22;10367;52.202;5.996;2024-03-06T04:52:45;4.80;99.90
20416;DHT22;10367;52.202;5.996;2024-03-06T04:55:14;4.90;99.90
20416;DHT22;10367;52.202;5.996;2024-03-06T04:57:49;4.90;99.90
20416;DHT22;10367;52.202;5.996;2024-03-06T05:00:18;5.00;99.90
20416;DHT22;10367;52.202;5.996;2024-03-06T05:02:47;5.00;99.90
20416;DHT22;10367;52.202;5.996;2024-03-06T05:05:33;5.10;99.90
20416;DHT22;10367;52.202;5.996;2024-03-06T05:08:21;5.10;99.90
20416;DHT22;10367;52.202;5.996;2024-03-06T05:11:07;5.20;99.90
20416;DHT22;10367;52.202;5.996;2024-03-06T05:13:54;5.20;99.90
20416;DHT22;10367;52.202;5.996;2024-03-06T05:16:40;5.10;99.90
20416;DHT22;10367;52.202;5.996;2024-03-06T05:19:26;5.10;99.90
20416;DHT22;10367;52.202;5.996;2024-03-06T05:22:17;5.00;99.90
20416;DHT22;10367;52.202;5.996;2024-03-06T05:25:03;5.00;99.90
20416;DHT22;10367;52.202;5.996;2024-03-06T05:27:50;5.10;99.90
20416;DHT22;10367;52.202;5.996;2024-03-06T05:30:37;5.10;99.90
20416;DHT22;10367;52.202;5.996;2024-03-06T05:33:24;5.10;99.90
20416;DHT22;10367;52.202;5.996;2024-03-06T05:36:11;5.00;99.90
20416;DHT22;10367;52.202;5.996;2024-03-06T05:38:59;5.00;99.90
20416;DHT22;10367;52.202;5.996;2024-03-06T05:41:45;5.00;99.90
20416;DHT22;10367;52.202;5.996;2024-03-06T05:44:32;4.90;99.90
20416;DHT22;10367;52.202;5.996;2024-03-06T05:47:20;4.90;99.90
20416;DHT22;10367;52.202;5.996;2024-03-06T05:50:08;4.90;99.90
20416;DHT22;10367;52.202;5.996;2024-03-06T05:52:55;4.90;99.90
20416;DHT22;10367;52.202;5.996;2024-03-06T05:55:42;5.10;99.90
20416;DHT22;10367;52.202;5.996;2024-03-06T05:58:28;5.10;99.90
20416;DHT22;10367;52.202;5.996;2024-03-06T06:00:56;5.10;99.90
20416;DHT22;10367;52.202;5.996;2024-03-06T06:03:27;5.10;99.90
20416;DHT22;10367;52.202;5.996;2024-03-06T06:05:56;5.10;99.90
20416;DHT22;10367;52.202;5.996;2024-03-06T06:08:27;5.00;99.90
20416;DHT22;10367;52.202;5.996;2024-03-06T06:10:56;5.00;99.90
20416;DHT22;10367;52.202;5.996;2024-03-06T06:13:25;5.00;99.90
20416;DHT22;10367;52.202;5.996;2024-03-06T06:15:54;5.10;99.90
20416;DHT22;10367;52.202;5.996;2024-03-06T06:18:23;5.20;99.90
20416;DHT22;10367;52.202;5.996;2024-03-06T06:20:54;5.20;99.90
20416;DHT22;10367;52.202;5.996;2024-03-06T06:23:22;5.10;99.90
20416;DHT22;10367;52.202;5.996;2024-03-06T06:25:56;5.10;99.90
20416;DHT22;10367;52.202;5.996;2024-03-06T06:28:25;5.10;99.90
20416;DHT22;10367;52.202;5.996;2024-03-06T06:30:54;5.10;99.90
20416;DHT22;10367;52.202;5.996;2024-03-06T06:33:23;5.10;99.90
20416;DHT22;10367;52.202;5.996;2024-03-06T06:35:53;5.20;99.90
20416;DHT22;10367;52.202;5.996;2024-03-06T06:38:22;5.20;99.90
20416;DHT22;10367;52.202;5.996;2024-03-06T06:40:51;5.20;99.90
20416;DHT22;10367;52.202;5.996;2024-03-06T06:43:20;5.20;99.90
20416;DHT22;10367;52.202;5.996;2024-03-06T06:45:48;5.30;99.90
20416;DHT22;10367;52.202;5.996;2024-03-06T06:48:20;5.20;99.90
20416;DHT22;10367;52.202;5.996;2024-03-06T06:50:50;5.10;99.90
20416;DHT22;10367;52.202;5.996;2024-03-06T06:53:20;5.10;99.90
20416;DHT22;10367;52.202;5.996;2024-03-06T06:55:49;5.10;99.90
20416;DHT22;10367;52.202;5.996;2024-03-06T06:58:18;5.10;99.90
20416;DHT22;10367;52.202;5.996;2024-03-06T07:00:47;5.10;99.90
20416;DHT22;10367;52.202;5.996;2024-03-06T07:03:16;5.10;99.90
20416;DHT22;10367;52.202;5.996;2024-03-06T07:05:45;5.20;99.90
20416;DHT22;10367;52.202;5.996;2024-03-06T07:08:14;5.20;99.90
20416;DHT22;10367;52.202;5.996;2024-03-06T07:10:45;5.30;99.90
20416;DHT22;10367;52.202;5.996;2024-03-06T07:13:14;5.30;99.90
20416;DHT22;10367;52.202;5.996;2024-03-06T07:15:43;5.30;99.90
20416;DHT22;10367;52.202;5.996;2024-03-06T07:18:11;5.40;99.90
20416;DHT22;10367;52.202;5.996;2024-03-06T07:20:40;5.30;99.90
20416;DHT22;10367;52.202;5.996;2024-03-06T07:23:09;5.40;99.90
20416;DHT22;10367;52.202;5.996;2024-03-06T07:25:38;5.40;99.90
20416;DHT22;10367;52.202;5.996;2024-03-06T07:28:08;5.40;99.90
20416;DHT22;10367;52.202;5.996;2024-03-06T07:30:37;5.40;99.90
20416;DHT22;10367;52.202;5.996;2024-03-06T07:33:06;5.50;99.90
20416;DHT22;10367;52.202;5.996;2024-03-06T07:35:36;5.30;99.90
20416;DHT22;10367;52.202;5.996;2024-03-06T07:38:05;5.20;99.90
20416;DHT22;10367;52.202;5.996;2024-03-06T07:40:35;5.20;99.90
20416;DHT22;10367;52.202;5.996;2024-03-06T07:43:07;5.30;99.90
20416;DHT22;10367;52.202;5.996;2024-03-06T07:45:36;5.30;99.90
20416;DHT22;10367;52.202;5.996;2024-03-06T07:48:06;5.50;99.90
20416;DHT22;10367;52.202;5.996;2024-03-06T07:50:37;5.60;99.90
20416;DHT22;10367;52.202;5.996;2024-03-06T07:53:15;5.70;99.90
20416;DHT22;10367;52.202;5.996;2024-03-06T07:55:44;5.90;99.90
20416;DHT22;10367;52.202;5.996;2024-03-06T07:58:14;5.90;99.90
20416;DHT22;10367;52.202;5.996;2024-03-06T08:00:44;5.90;99.90
20416;DHT22;10367;52.202;5.996;2024-03-06T08:03:13;5.90;99.90
20416;DHT22;10367;52.202;5.996;2024-03-06T08:05:43;6.00;99.90
20416;DHT22;10367;52.202;5.996;2024-03-06T08:08:12;5.80;99.90
20416;DHT22;10367;52.202;5.996;2024-03-06T08:10:41;5.80;99.90
20416;DHT22;10367;52.202;5.996;2024-03-06T08:13:14;5.70;99.90
20416;DHT22;10367;52.202;5.996;2024-03-06T08:15:42;5.70;99.90
20416;DHT22;10367;52.202;5.996;2024-03-06T08:18:12;5.70;99.90
20416;DHT22;10367;52.202;5.996;2024-03-06T08:20:42;5.70;99.90
20416;DHT22;10367;52.202;5.996;2024-03-06T08:23:11;5.80;99.90
20416;DHT22;10367;52.202;5.996;2024-03-06T08:25:40;6.00;99.90
20416;DHT22;10367;52.202;5.996;2024-03-06T08:28:08;6.10;99.90
20416;DHT22;10367;52.202;5.996;2024-03-06T08:30:39;6.10;99.90
20416;DHT22;10367;52.202;5.996;2024-03-06T08:33:08;6.00;99.90
20416;DHT22;10367;52.202;5.996;2024-03-06T08:35:37;5.90;99.90
20416;DHT22;10367;52.202;5.996;2024-03-06T08:38:05;5.90;99.90
20416;DHT22;10367;52.202;5.996;2024-03-06T08:40:35;5.90;99.90
20416;DHT22;10367;52.202;5.996;2024-03-06T08:43:10;6.10;99.90
20416;DHT22;10367;52.202;5.996;2024-03-06T08:45:46;6.20;99.90
20416;DHT22;10367;52.202;5.996;2024-03-06T08:48:17;6.40;99.90
20416;DHT22;10367;52.202;5.996;2024-03-06T08:50:47;6.40;99.90
20416;DHT22;10367;52.202;5.996;2024-03-06T08:53:22;6.60;99.90
20416;DHT22;10367;52.202;5.996;2024-03-06T08:55:52;6.70;99.90
20416;DHT22;10367;52.202;5.996;2024-03-06T08:58:20;6.60;99.90
20416;DHT22;10367;52.202;5.996;2024-03-06T09:00:53;6.60;99.90
20416;DHT22;10367;52.202;5.996;2024-03-06T09:03:23;6.60;99.90
20416;DHT22;10367;52.202;5.996;2024-03-06T09:05:55;6.50;99.90
20416;DHT22;10367;52.202;5.996;2024-03-06T09:08:24;6.50;99.90
20416;DHT22;10367;52.202;5.996;2024-03-06T09:10:53;6.50;99.90
20416;DHT22;10367;52.202;5.996;2024-03-06T09:13:24;6.70;99.90
20416;DHT22;10367;52.202;5.996;2024-03-06T09:15:56;7.10;99.90
20416;DHT22;10367;52.202;5.996;2024-03-06T09:18:27;7.30;99.90
20416;DHT22;10367;52.202;5.996;2024-03-06T09:20:57;7.20;99.90
20416;DHT22;10367;52.202;5.996;2024-03-06T09:23:26;7.30;99.90
20416;DHT22;10367;52.202;5.996;2024-03-06T09:25:57;7.50;99.90
20416;DHT22;10367;52.202;5.996;2024-03-06T09:28:29;7.50;99.90
20416;DHT22;10367;52.202;5.996;2024-03-06T09:31:02;7.50;99.90
20416;DHT22;10367;52.202;5.996;2024-03-06T09:33:42;7.60;99.90
20416;DHT22;10367;52.202;5.996;2024-03-06T09:36:14;7.90;99.90
20416;DHT22;10367;52.202;5.996;2024-03-06T09:38:44;8.00;99.90
20416;DHT22;10367;52.202;5.996;2024-03-06T09:41:13;8.10;99.90
20416;DHT22;10367;52.202;5.996;2024-03-06T09:43:47;7.90;99.90
20416;DHT22;10367;52.202;5.996;2024-03-06T09:46:19;7.70;99.90
20416;DHT22;10367;52.202;5.996;2024-03-06T09:48:52;7.70;99.90
20416;DHT22;10367;52.202;5.996;2024-03-06T09:51:25;7.80;99.90
20416;DHT22;10367;52.202;5.996;2024-03-06T09:53:58;7.90;99.90
20416;DHT22;10367;52.202;5.996;2024-03-06T09:56:27;8.00;99.90
20416;DHT22;10367;52.202;5.996;2024-03-06T09:58:57;8.00;99.90
20416;DHT22;10367;52.202;5.996;2024-03-06T10:01:31;7.80;99.90
20416;DHT22;10367;52.202;5.996;2024-03-06T10:04:17;7.70;99.90
20416;DHT22;10367;52.202;5.996;2024-03-06T10:06:47;7.70;99.90
20416;DHT22;10367;52.202;5.996;2024-03-06T10:09:21;7.70;99.90
20416;DHT22;10367;52.202;5.996;2024-03-06T10:11:51;7.90;99.90
20416;DHT22;10367;52.202;5.996;2024-03-06T10:14:29;8.00;99.90
20416;DHT22;10367;52.202;5.996;2024-03-06T10:17:02;8.10;99.90
20416;DHT22;10367;52.202;5.996;2024-03-06T10:19:35;8.10;99.90
20416;DHT22;10367;52.202;5.996;2024-03-06T10:22:09;8.10;99.90
20416;DHT22;10367;52.202;5.996;2024-03-06T10:24:39;8.10;99.90
20416;DHT22;10367;52.202;5.996;2024-03-06T10:27:14;8.00;99.90
20416;DHT22;10367;52.202;5.996;2024-03-06T10:29:44;8.00;99.90
20416;DHT22;10367;52.202;5.996;2024-03-06T10:32:18;8.10;99.90
20416;DHT22;10367;52.202;5.996;2024-03-06T10:34:49;8.30;99.90
20416;DHT22;10367;52.202;5.996;2024-03-06T10:37:19;8.40;99.90
20416;DHT22;10367;52.202;5.996;2024-03-06T10:39:52;8.50;99.90
20416;DHT22;10367;52.202;5.996;2024-03-06T10:42:27;8.60;99.90
20416;DHT22;10367;52.202;5.996;2024-03-06T10:45:01;8.70;99.90
20416;DHT22;10367;52.202;5.996;2024-03-06T10:47:34;8.90;99.90
20416;DHT22;10367;52.202;5.996;2024-03-06T10:50:07;9.20;99.90
20416;DHT22;10367;52.202;5.996;2024-03-06T10:52:38;9.40;99.90
20416;DHT22;10367;52.202;5.996;2024-03-06T10:55:08;9.50;99.90
20416;DHT22;10367;52.202;5.996;2024-03-06T10:57:38;9.40;99.90
20416;DHT22;10367;52.202;5.996;2024-03-06T11:00:10;9.00;99.90
20416;DHT22;10367;52.202;5.996;2024-03-06T11:02:46;8.70;99.90
20416;DHT22;10367;52.202;5.996;2024-03-06T11:05:17;8.60;99.90
20416;DHT22;10367;52.202;5.996;2024-03-06T11:08:01;8.50;99.90
20416;DHT22;10367;52.202;5.996;2024-03-06T11:10:32;8.50;99.90
20416;DHT22;10367;52.202;5.996;2024-03-06T11:13:02;8.70;99.90
20416;DHT22;10367;52.202;5.996;2024-03-06T11:15:51;8.80;99.90
20416;DHT22;10367;52.202;5.996;2024-03-06T11:18:45;8.70;99.90
20416;DHT22;10367;52.202;5.996;2024-03-06T11:21:30;8.80;99.90
20416;DHT22;10367;52.202;5.996;2024-03-06T11:24:14;9.10;99.90
20416;DHT22;10367;52.202;5.996;2024-03-06T11:26:59;9.60;99.90
20416;DHT22;10367;52.202;5.996;2024-03-06T11:29:29;9.80;99.90
20416;DHT22;10367;52.202;5.996;2024-03-06T11:32:19;10.10;99.90
20416;DHT22;10367;52.202;5.996;2024-03-06T11:34:49;10.50;99.90
20416;DHT22;10367;52.202;5.996;2024-03-06T11:37:21;10.80;99.90
20416;DHT22;10367;52.202;5.996;2024-03-06T11:39:51;11.00;99.90
20416;DHT22;10367;52.202;5.996;2024-03-06T11:42:33;11.00;99.90
20416;DHT22;10367;52.202;5.996;2024-03-06T11:45:16;11.00;99.90
20416;DHT22;10367;52.202;5.996;2024-03-06T11:47:56;10.50;99.90
20416;DHT22;10367;52.202;5.996;2024-03-06T11:50:29;10.10;99.90
20416;DHT22;10367;52.202;5.996;2024-03-06T11:52:59;9.70;99.90
20416;DHT22;10367;52.202;5.996;2024-03-06T11:55:28;9.70;99.90
20416;DHT22;10367;52.202;5.996;2024-03-06T11:57:59;9.70;99.90
20416;DHT22;10367;52.202;5.996;2024-03-06T12:00:30;9.80;99.90
20416;DHT22;10367;52.202;5.996;2024-03-06T12:03:00;9.80;99.90
20416;DHT22;10367;52.202;5.996;2024-03-06T12:05:34;9.80;99.90
20416;DHT22;10367;52.202;5.996;2024-03-06T12:08:03;10.10;99.90
20416;DHT22;10367;52.202;5.996;2024-03-06T12:10:37;10.50;99.90
20416;DHT22;10367;52.202;5.996;2024-03-06T12:13:06;10.70;99.90
20416;DHT22;10367;52.202;5.996;2024-03-06T12:15:35;10.70;99.90
20416;DHT22;10367;52.202;5.996;2024-03-06T12:18:04;10.70;99.90
20416;DHT22;10367;52.202;5.996;2024-03-06T12:20:39;10.70;99.90
20416;DHT22;10367;52.202;5.996;2024-03-06T12:23:08;11.00;99.90
20416;DHT22;10367;52.202;5.996;2024-03-06T12:25:37;11.30;99.90
20416;DHT22;10367;52.202;5.996;2024-03-06T12:28:12;11.30;99.90
20416;DHT22;10367;52.202;5.996;2024-03-06T12:30:42;11.40;99.90
20416;DHT22;10367;52.202;5.996;2024-03-06T12:33:16;11.70;99.90
20416;DHT22;10367;52.202;5.996;2024-03-06T12:35:47;12.00;99.90
20416;DHT22;10367;52.202;5.996;2024-03-06T12:38:16;12.30;99.90
20416;DHT22;10367;52.202;5.996;2024-03-06T12:40:45;12.60;99.90
20416;DHT22;10367;52.202;5.996;2024-03-06T12:43:14;12.60;99.90
20416;DHT22;10367;52.202;5.996;2024-03-06T12:45:43;12.40;99.90
20416;DHT22;10367;52.202;5.996;2024-03-06T12:48:12;12.70;99.90
20416;DHT22;10367;52.202;5.996;2024-03-06T12:50:41;13.20;99.90
20416;DHT22;10367;52.202;5.996;2024-03-06T12:53:11;13.60;99.90
20416;DHT22;10367;52.202;5.996;2024-03-06T12:55:40;13.80;99.90
20416;DHT22;10367;52.202;5.996;2024-03-06T12:58:10;14.00;99.90
20416;DHT22;10367;52.202;5.996;2024-03-06T13:00:39;14.20;99.90
20416;DHT22;10367;52.202;5.996;2024-03-06T13:03:08;14.60;99.90
20416;DHT22;10367;52.202;5.996;2024-03-06T13:05:37;14.60;99.90
20416;DHT22;10367;52.202;5.996;2024-03-06T13:08:06;14.50;99.90
20416;DHT22;10367;52.202;5.996;2024-03-06T13:10:36;14.10;99.90
20416;DHT22;10367;52.202;5.996;2024-03-06T13:13:05;13.60;99.90
20416;DHT22;10367;52.202;5.996;2024-03-06T13:15:34;13.50;99.90
20416;DHT22;10367;52.202;5.996;2024-03-06T13:18:04;13.80;99.90
20416;DHT22;10367;52.202;5.996;2024-03-06T13:20:34;13.90;99.90
20416;DHT22;10367;52.202;5.996;2024-03-06T13:23:03;14.00;99.90
20416;DHT22;10367;52.202;5.996;2024-03-06T13:25:33;14.20;99.90
20416;DHT22;10367;52.202;5.996;2024-03-06T13:28:04;14.70;99.90
20416;DHT22;10367;52.202;5.996;2024-03-06T13:30:33;15.00;99.90
20416;DHT22;10367;52.202;5.996;2024-03-06T13:33:03;15.20;99.90
20416;DHT22;10367;52.202;5.996;2024-03-06T13:35:32;14.80;99.90
20416;DHT22;10367;52.202;5.996;2024-03-06T13:38:00;14.90;99.90
20416;DHT22;10367;52.202;5.996;2024-03-06T13:40:30;15.00;99.90
20416;DHT22;10367;52.202;5.996;2024-03-06T13:42:59;15.40;99.90
20416;DHT22;10367;52.202;5.996;2024-03-06T13:45:29;15.50;99.90
20416;DHT22;10367;52.202;5.996;2024-03-06T13:47:58;15.40;99.90
20416;DHT22;10367;52.202;5.996;2024-03-06T13:50:27;15.50;99.90
20416;DHT22;10367;52.202;5.996;2024-03-06T13:52:56;15.60;99.90
20416;DHT22;10367;52.202;5.996;2024-03-06T13:55:25;15.60;99.90
20416;DHT22;10367;52.202;5.996;2024-03-06T13:57:55;15.70;99.90
20416;DHT22;10367;52.202;5.996;2024-03-06T14:00:24;15.50;99.90
20416;DHT22;10367;52.202;5.996;2024-03-06T14:02:54;15.00;99.90
20416;DHT22;10367;52.202;5.996;2024-03-06T14:05:23;14.80;99.90
20416;DHT22;10367;52.202;5.996;2024-03-06T14:07:54;14.90;99.90
20416;DHT22;10367;52.202;5.996;2024-03-06T14:10:22;15.50;99.90
20416;DHT22;10367;52.202;5.996;2024-03-06T14:12:51;15.40;99.90
20416;DHT22;10367;52.202;5.996;2024-03-06T14:15:22;15.30;99.90
20416;DHT22;10367;52.202;5.996;2024-03-06T14:17:51;15.30;99.90
20416;DHT22;10367;52.202;5.996;2024-03-06T14:20:23;15.20;99.90
20416;DHT22;10367;52.202;5.996;2024-03-06T14:22:52;14.40;99.90
20416;DHT22;10367;52.202;5.996;2024-03-06T14:25:20;14.10;99.90
20416;DHT22;10367;52.202;5.996;2024-03-06T14:27:49;13.90;99.90
20416;DHT22;10367;52.202;5.996;2024-03-06T14:30:18;13.80;99.90
20416;DHT22;10367;52.202;5.996;2024-03-06T14:32:47;13.70;99.90
20416;DHT22;10367;52.202;5.996;2024-03-06T14:35:16;13.70;99.90
20416;DHT22;10367;52.202;5.996;2024-03-06T14:37:47;13.50;99.90
20416;DHT22;10367;52.202;5.996;2024-03-06T14:40:16;13.40;99.90
20416;DHT22;10367;52.202;5.996;2024-03-06T14:42:45;13.50;99.90
20416;DHT22;10367;52.202;5.996;2024-03-06T14:45:14;13.10;99.90
20416;DHT22;10367;52.202;5.996;2024-03-06T14:47:42;12.60;99.90
20416;DHT22;10367;52.202;5.996;2024-03-06T14:50:11;12.40;99.90
20416;DHT22;10367;52.202;5.996;2024-03-06T14:52:40;12.20;99.90
20416;DHT22;10367;52.202;5.996;2024-03-06T14:55:10;12.10;99.90
20416;DHT22;10367;52.202;5.996;2024-03-06T14:57:39;11.90;99.90
20416;DHT22;10367;52.202;5.996;2024-03-06T15:00:09;11.90;99.90
20416;DHT22;10367;52.202;5.996;2024-03-06T15:02:40;11.80;99.90
20416;DHT22;10367;52.202;5.996;2024-03-06T15:05:09;11.80;99.90
20416;DHT22;10367;52.202;5.996;2024-03-06T15:07:39;11.90;99.90
20416;DHT22;10367;52.202;5.996;2024-03-06T15:10:10;11.90;99.90
20416;DHT22;10367;52.202;5.996;2024-03-06T15:12:39;11.90;99.90
20416;DHT22;10367;52.202;5.996;2024-03-06T15:15:10;11.90;99.90
20416;DHT22;10367;52.202;5.996;2024-03-06T15:17:38;11.90;99.90
20416;DHT22;10367;52.202;5.996;2024-03-06T15:20:08;12.10;99.90
20416;DHT22;10367;52.202;5.996;2024-03-06T15:22:38;12.20;99.90
20416;DHT22;10367;52.202;5.996;2024-03-06T15:25:11;12.40;99.90
20416;DHT22;10367;52.202;5.996;2024-03-06T15:27:41;12.50;99.90
20416;DHT22;10367;52.202;5.996;2024-03-06T15:30:10;12.50;99.90
20416;DHT22;10367;52.202;5.996;2024-03-06T15:32:41;12.50;99.90
20416;DHT22;10367;52.202;5.996;2024-03-06T15:35:10;12.40;99.90
20416;DHT22;10367;52.202;5.996;2024-03-06T15:37:40;12.40;99.90
20416;DHT22;10367;52.202;5.996;2024-03-06T15:40:11;12.20;99.90
20416;DHT22;10367;52.202;5.996;2024-03-06T15:42:40;12.10;99.90
20416;DHT22;10367;52.202;5.996;2024-03-06T15:45:11;11.90;99.90
20416;DHT22;10367;52.202;5.996;2024-03-06T15:47:40;11.80;99.90
20416;DHT22;10367;52.202;5.996;2024-03-06T15:50:12;11.70;99.90
20416;DHT22;10367;52.202;5.996;2024-03-06T15:52:41;11.60;99.90
20416;DHT22;10367;52.202;5.996;2024-03-06T15:55:12;11.70;99.90
20416;DHT22;10367;52.202;5.996;2024-03-06T15:57:40;11.60;99.90
20416;DHT22;10367;52.202;5.996;2024-03-06T16:00:11;11.50;99.90
20416;DHT22;10367;52.202;5.996;2024-03-06T16:02:42;11.50;99.90
20416;DHT22;10367;52.202;5.996;2024-03-06T16:05:12;11.40;99.90
20416;DHT22;10367;52.202;5.996;2024-03-06T16:07:41;11.30;99.90